Wikieup, Arizona
Current Conditions -  °F | °C
As of 5:15 PM on Sunday 23 Nov 2014 (Local Time) from KHII Reporting Station
Clear Clear  
Wind Chill: 66°   Ceiling: Unl
Heat Index: 66°   Visibility: 10mi
Dew Point:   Wind: 21mph
Humidity: 11%   Direction: 310°NW
Pressure: 30.14"   Gusts: 30mph
Location:  34.7°N, 113.61°W
Report Text: KHII 240015Z AUTO 31018G26KT 10SM CLR 19/M13 A3014 RMK AO2
Loading
Personal Weather Stations






























Interactive Weather Map New forecast layout! Learn more

10-Day Weather Forecast

Advertisements
Track Severe Weather on mobile